sensor_id;sensor_type;location;lat;lon;timestamp;P1;durP1;ratioP1;P2;durP2;ratioP2
1048;SDS011;513;51.444;7.196;2023-09-19T00:01:43;9.57;;;2.40;;
1048;SDS011;513;51.444;7.196;2023-09-19T00:04:12;6.80;;;2.28;;
1048;SDS011;513;51.444;7.196;2023-09-19T00:06:39;9.60;;;2.55;;
1048;SDS011;513;51.444;7.196;2023-09-19T00:09:09;10.20;;;2.40;;
1048;SDS011;513;51.444;7.196;2023-09-19T00:11:36;10.13;;;3.08;;
1048;SDS011;513;51.444;7.196;2023-09-19T00:14:03;9.45;;;2.72;;
1048;SDS011;513;51.444;7.196;2023-09-19T00:16:33;9.30;;;2.40;;
1048;SDS011;513;51.444;7.196;2023-09-19T00:19:01;7.03;;;2.55;;
1048;SDS011;513;51.444;7.196;2023-09-19T00:21:34;10.77;;;2.97;;
1048;SDS011;513;51.444;7.196;2023-09-19T00:24:03;10.73;;;2.83;;
1048;SDS011;513;51.444;7.196;2023-09-19T00:26:31;8.45;;;2.55;;
1048;SDS011;513;51.444;7.196;2023-09-19T00:28:59;10.57;;;3.10;;
1048;SDS011;513;51.444;7.196;2023-09-19T00:31:30;10.10;;;3.00;;
1048;SDS011;513;51.444;7.196;2023-09-19T00:33:57;9.02;;;3.00;;
1048;SDS011;513;51.444;7.196;2023-09-19T00:36:29;11.32;;;2.97;;
1048;SDS011;513;51.444;7.196;2023-09-19T00:38:57;8.05;;;2.65;;
1048;SDS011;513;51.444;7.196;2023-09-19T00:41:24;9.73;;;2.70;;
1048;SDS011;513;51.444;7.196;2023-09-19T00:43:52;11.88;;;2.70;;
1048;SDS011;513;51.444;7.196;2023-09-19T00:46:19;8.90;;;2.65;;
1048;SDS011;513;51.444;7.196;2023-09-19T00:48:46;12.00;;;2.97;;
1048;SDS011;513;51.444;7.196;2023-09-19T00:51:14;9.75;;;2.58;;
1048;SDS011;513;51.444;7.196;2023-09-19T00:53:44;11.45;;;2.55;;
1048;SDS011;513;51.444;7.196;2023-09-19T00:56:13;11.32;;;3.00;;
1048;SDS011;513;51.444;7.196;2023-09-19T00:58:43;9.63;;;2.53;;
1048;SDS011;513;51.444;7.196;2023-09-19T01:01:11;10.73;;;2.70;;
1048;SDS011;513;51.444;7.196;2023-09-19T01:03:39;14.35;;;2.78;;
1048;SDS011;513;51.444;7.196;2023-09-19T01:06:06;12.55;;;3.00;;
1048;SDS011;513;51.444;7.196;2023-09-19T01:08:33;9.43;;;2.60;;
1048;SDS011;513;51.444;7.196;2023-09-19T01:11:03;10.52;;;2.53;;
1048;SDS011;513;51.444;7.196;2023-09-19T01:13:39;8.93;;;2.53;;
1048;SDS011;513;51.444;7.196;2023-09-19T01:16:10;11.23;;;2.70;;
1048;SDS011;513;51.444;7.196;2023-09-19T01:18:43;9.90;;;2.80;;
1048;SDS011;513;51.444;7.196;2023-09-19T01:21:14;10.68;;;2.45;;
1048;SDS011;513;51.444;7.196;2023-09-19T01:23:50;7.95;;;2.78;;
1048;SDS011;513;51.444;7.196;2023-09-19T01:26:30;9.03;;;2.50;;
1048;SDS011;513;51.444;7.196;2023-09-19T01:29:08;10.73;;;2.93;;
1048;SDS011;513;51.444;7.196;2023-09-19T01:31:40;9.35;;;2.35;;
1048;SDS011;513;51.444;7.196;2023-09-19T01:34:09;8.50;;;2.38;;
1048;SDS011;513;51.444;7.196;2023-09-19T01:36:36;12.50;;;2.90;;
1048;SDS011;513;51.444;7.196;2023-09-19T01:39:04;12.03;;;2.60;;
1048;SDS011;513;51.444;7.196;2023-09-19T01:41:38;13.50;;;3.00;;
1048;SDS011;513;51.444;7.196;2023-09-19T01:44:09;10.38;;;2.70;;
1048;SDS011;513;51.444;7.196;2023-09-19T01:46:39;8.20;;;2.55;;
1048;SDS011;513;51.444;7.196;2023-09-19T01:49:12;10.15;;;2.75;;
1048;SDS011;513;51.444;7.196;2023-09-19T01:51:46;11.45;;;2.50;;
1048;SDS011;513;51.444;7.196;2023-09-19T01:54:18;9.05;;;2.65;;
1048;SDS011;513;51.444;7.196;2023-09-19T01:56:53;9.32;;;2.28;;
1048;SDS011;513;51.444;7.196;2023-09-19T01:59:24;10.25;;;2.45;;
1048;SDS011;513;51.444;7.196;2023-09-19T02:01:52;8.88;;;2.88;;
1048;SDS011;513;51.444;7.196;2023-09-19T02:04:21;9.30;;;2.58;;
1048;SDS011;513;51.444;7.196;2023-09-19T02:06:48;11.15;;;2.60;;
1048;SDS011;513;51.444;7.196;2023-09-19T02:09:16;11.90;;;3.00;;
1048;SDS011;513;51.444;7.196;2023-09-19T02:11:43;12.00;;;3.25;;
1048;SDS011;513;51.444;7.196;2023-09-19T02:14:11;11.38;;;2.80;;
1048;SDS011;513;51.444;7.196;2023-09-19T02:16:40;12.07;;;2.67;;
1048;SDS011;513;51.444;7.196;2023-09-19T02:19:07;12.73;;;2.97;;
1048;SDS011;513;51.444;7.196;2023-09-19T02:21:35;9.25;;;2.50;;
1048;SDS011;513;51.444;7.196;2023-09-19T02:24:05;8.65;;;2.65;;
1048;SDS011;513;51.444;7.196;2023-09-19T02:26:33;9.30;;;2.80;;
1048;SDS011;513;51.444;7.196;2023-09-19T02:29:00;13.27;;;3.30;;
1048;SDS011;513;51.444;7.196;2023-09-19T02:31:29;10.57;;;2.78;;
1048;SDS011;513;51.444;7.196;2023-09-19T02:33:56;10.43;;;2.50;;
1048;SDS011;513;51.444;7.196;2023-09-19T02:36:25;8.40;;;2.07;;
1048;SDS011;513;51.444;7.196;2023-09-19T02:38:53;13.05;;;2.50;;
1048;SDS011;513;51.444;7.196;2023-09-19T02:41:20;11.48;;;2.80;;
1048;SDS011;513;51.444;7.196;2023-09-19T02:43:47;13.57;;;3.03;;
1048;SDS011;513;51.444;7.196;2023-09-19T02:46:14;11.73;;;2.90;;
1048;SDS011;513;51.444;7.196;2023-09-19T02:48:42;9.40;;;2.67;;
1048;SDS011;513;51.444;7.196;2023-09-19T02:51:09;8.88;;;2.53;;
1048;SDS011;513;51.444;7.196;2023-09-19T02:53:36;11.25;;;2.60;;
1048;SDS011;513;51.444;7.196;2023-09-19T02:56:04;13.50;;;2.75;;
1048;SDS011;513;51.444;7.196;2023-09-19T02:58:32;11.20;;;2.60;;
1048;SDS011;513;51.444;7.196;2023-09-19T03:01:07;9.70;;;2.63;;
1048;SDS011;513;51.444;7.196;2023-09-19T03:03:34;12.63;;;2.90;;
1048;SDS011;513;51.444;7.196;2023-09-19T03:06:02;10.00;;;2.67;;
1048;SDS011;513;51.444;7.196;2023-09-19T03:08:29;13.38;;;2.78;;
1048;SDS011;513;51.444;7.196;2023-09-19T03:11:01;11.85;;;2.65;;
1048;SDS011;513;51.444;7.196;2023-09-19T03:13:32;12.20;;;2.58;;
1048;SDS011;513;51.444;7.196;2023-09-19T03:16:01;10.82;;;2.85;;
1048;SDS011;513;51.444;7.196;2023-09-19T03:18:30;11.48;;;2.97;;
1048;SDS011;513;51.444;7.196;2023-09-19T03:20:58;9.35;;;2.60;;
1048;SDS011;513;51.444;7.196;2023-09-19T03:23:26;12.68;;;3.08;;
1048;SDS011;513;51.444;7.196;2023-09-19T03:25:53;11.90;;;2.37;;
1048;SDS011;513;51.444;7.196;2023-09-19T03:28:20;9.23;;;2.30;;
1048;SDS011;513;51.444;7.196;2023-09-19T03:30:58;13.23;;;2.93;;
1048;SDS011;513;51.444;7.196;2023-09-19T03:33:26;10.68;;;2.42;;
1048;SDS011;513;51.444;7.196;2023-09-19T03:35:53;10.20;;;2.53;;
1048;SDS011;513;51.444;7.196;2023-09-19T03:38:20;8.18;;;2.30;;
1048;SDS011;513;51.444;7.196;2023-09-19T03:40:47;8.18;;;2.45;;
1048;SDS011;513;51.444;7.196;2023-09-19T03:43:14;10.25;;;2.78;;
1048;SDS011;513;51.444;7.196;2023-09-19T03:45:42;10.73;;;2.55;;
1048;SDS011;513;51.444;7.196;2023-09-19T03:48:11;10.32;;;2.80;;
1048;SDS011;513;51.444;7.196;2023-09-19T03:50:38;10.32;;;2.65;;
1048;SDS011;513;51.444;7.196;2023-09-19T03:53:05;8.73;;;2.25;;
1048;SDS011;513;51.444;7.196;2023-09-19T03:55:32;8.60;;;2.72;;
1048;SDS011;513;51.444;7.196;2023-09-19T03:58:00;11.32;;;2.67;;
1048;SDS011;513;51.444;7.196;2023-09-19T04:00:29;11.27;;;2.75;;
1048;SDS011;513;51.444;7.196;2023-09-19T04:02:56;10.30;;;2.90;;
1048;SDS011;513;51.444;7.196;2023-09-19T04:05:24;11.97;;;2.43;;
1048;SDS011;513;51.444;7.196;2023-09-19T04:07:51;10.05;;;2.45;;
1048;SDS011;513;51.444;7.196;2023-09-19T04:10:19;7.63;;;2.63;;
1048;SDS011;513;51.444;7.196;2023-09-19T04:12:52;13.48;;;2.80;;
1048;SDS011;513;51.444;7.196;2023-09-19T04:15:19;9.35;;;2.40;;
1048;SDS011;513;51.444;7.196;2023-09-19T04:17:48;11.52;;;2.53;;
1048;SDS011;513;51.444;7.196;2023-09-19T04:20:15;11.27;;;2.47;;
1048;SDS011;513;51.444;7.196;2023-09-19T04:22:44;8.45;;;2.30;;
1048;SDS011;513;51.444;7.196;2023-09-19T04:25:11;11.13;;;2.70;;
1048;SDS011;513;51.444;7.196;2023-09-19T04:27:38;12.65;;;2.90;;
1048;SDS011;513;51.444;7.196;2023-09-19T04:30:07;12.25;;;2.53;;
1048;SDS011;513;51.444;7.196;2023-09-19T04:32:36;9.77;;;2.25;;
1048;SDS011;513;51.444;7.196;2023-09-19T04:35:05;10.82;;;3.10;;
1048;SDS011;513;51.444;7.196;2023-09-19T04:37:33;8.35;;;2.50;;
1048;SDS011;513;51.444;7.196;2023-09-19T04:40:01;15.05;;;2.92;;
1048;SDS011;513;51.444;7.196;2023-09-19T04:42:30;8.25;;;2.60;;
1048;SDS011;513;51.444;7.196;2023-09-19T04:44:57;6.87;;;2.43;;
1048;SDS011;513;51.444;7.196;2023-09-19T04:47:25;9.15;;;2.45;;
1048;SDS011;513;51.444;7.196;2023-09-19T04:49:52;12.77;;;2.72;;
1048;SDS011;513;51.444;7.196;2023-09-19T04:52:19;13.40;;;3.63;;
1048;SDS011;513;51.444;7.196;2023-09-19T04:54:46;7.55;;;2.22;;
1048;SDS011;513;51.444;7.196;2023-09-19T04:57:14;7.32;;;2.55;;
1048;SDS011;513;51.444;7.196;2023-09-19T04:59:42;12.77;;;2.97;;
1048;SDS011;513;51.444;7.196;2023-09-19T05:02:09;9.50;;;2.60;;
1048;SDS011;513;51.444;7.196;2023-09-19T05:04:37;12.07;;;3.30;;
1048;SDS011;513;51.444;7.196;2023-09-19T05:07:04;10.30;;;3.00;;
1048;SDS011;513;51.444;7.196;2023-09-19T05:09:31;10.82;;;2.67;;
1048;SDS011;513;51.444;7.196;2023-09-19T05:11:59;10.30;;;3.03;;
1048;SDS011;513;51.444;7.196;2023-09-19T05:14:27;12.50;;;2.72;;
1048;SDS011;513;51.444;7.196;2023-09-19T05:16:55;11.23;;;2.70;;
1048;SDS011;513;51.444;7.196;2023-09-19T05:19:21;11.85;;;2.55;;
1048;SDS011;513;51.444;7.196;2023-09-19T05:21:48;10.07;;;2.80;;
1048;SDS011;513;51.444;7.196;2023-09-19T05:24:16;9.93;;;2.55;;
1048;SDS011;513;51.444;7.196;2023-09-19T05:26:43;10.53;;;2.73;;
1048;SDS011;513;51.444;7.196;2023-09-19T05:29:10;11.80;;;2.60;;
1048;SDS011;513;51.444;7.196;2023-09-19T05:31:39;10.98;;;2.95;;
1048;SDS011;513;51.444;7.196;2023-09-19T05:34:07;12.85;;;2.90;;
1048;SDS011;513;51.444;7.196;2023-09-19T05:36:34;10.07;;;2.53;;
1048;SDS011;513;51.444;7.196;2023-09-19T05:39:02;10.85;;;2.72;;
1048;SDS011;513;51.444;7.196;2023-09-19T05:41:29;12.82;;;3.08;;
1048;SDS011;513;51.444;7.196;2023-09-19T05:43:56;10.98;;;2.70;;
1048;SDS011;513;51.444;7.196;2023-09-19T05:46:24;14.70;;;3.20;;
1048;SDS011;513;51.444;7.196;2023-09-19T05:48:56;11.25;;;2.65;;
1048;SDS011;513;51.444;7.196;2023-09-19T05:51:23;10.35;;;3.10;;
1048;SDS011;513;51.444;7.196;2023-09-19T05:53:53;8.07;;;2.53;;
1048;SDS011;513;51.444;7.196;2023-09-19T05:56:20;13.23;;;2.72;;
1048;SDS011;513;51.444;7.196;2023-09-19T05:58:47;10.65;;;2.90;;
1048;SDS011;513;51.444;7.196;2023-09-19T06:01:17;10.07;;;2.30;;
1048;SDS011;513;51.444;7.196;2023-09-19T06:03:44;9.90;;;2.97;;
1048;SDS011;513;51.444;7.196;2023-09-19T06:06:12;9.02;;;2.60;;
1048;SDS011;513;51.444;7.196;2023-09-19T06:08:39;12.30;;;3.05;;
1048;SDS011;513;51.444;7.196;2023-09-19T06:11:09;11.50;;;2.92;;
1048;SDS011;513;51.444;7.196;2023-09-19T06:13:36;12.50;;;2.90;;
1048;SDS011;513;51.444;7.196;2023-09-19T06:16:05;9.32;;;2.58;;
1048;SDS011;513;51.444;7.196;2023-09-19T06:18:32;10.20;;;2.47;;
1048;SDS011;513;51.444;7.196;2023-09-19T06:20:59;9.63;;;2.55;;
1048;SDS011;513;51.444;7.196;2023-09-19T06:23:33;12.63;;;2.63;;
1048;SDS011;513;51.444;7.196;2023-09-19T06:26:01;9.45;;;2.83;;
1048;SDS011;513;51.444;7.196;2023-09-19T06:28:28;13.35;;;2.60;;
1048;SDS011;513;51.444;7.196;2023-09-19T06:30:55;9.47;;;2.60;;
1048;SDS011;513;51.444;7.196;2023-09-19T06:33:23;12.18;;;2.60;;
1048;SDS011;513;51.444;7.196;2023-09-19T06:35:50;8.88;;;2.58;;
1048;SDS011;513;51.444;7.196;2023-09-19T06:38:24;11.10;;;2.72;;
1048;SDS011;513;51.444;7.196;2023-09-19T06:40:52;11.02;;;3.03;;
1048;SDS011;513;51.444;7.196;2023-09-19T06:43:19;11.57;;;2.40;;
1048;SDS011;513;51.444;7.196;2023-09-19T06:45:46;9.40;;;2.40;;
1048;SDS011;513;51.444;7.196;2023-09-19T06:48:13;11.77;;;2.53;;
1048;SDS011;513;51.444;7.196;2023-09-19T06:50:40;12.07;;;2.80;;
1048;SDS011;513;51.444;7.196;2023-09-19T06:53:09;8.55;;;2.28;;
1048;SDS011;513;51.444;7.196;2023-09-19T06:55:36;9.17;;;2.40;;
1048;SDS011;513;51.444;7.196;2023-09-19T06:58:04;12.13;;;2.58;;
1048;SDS011;513;51.444;7.196;2023-09-19T07:00:32;9.50;;;2.33;;
1048;SDS011;513;51.444;7.196;2023-09-19T07:03:01;10.02;;;2.75;;
1048;SDS011;513;51.444;7.196;2023-09-19T07:05:35;10.63;;;2.38;;
1048;SDS011;513;51.444;7.196;2023-09-19T07:08:04;10.25;;;2.70;;
1048;SDS011;513;51.444;7.196;2023-09-19T07:10:31;8.73;;;2.50;;
1048;SDS011;513;51.444;7.196;2023-09-19T07:12:59;9.20;;;2.70;;
1048;SDS011;513;51.444;7.196;2023-09-19T07:15:27;12.73;;;2.75;;
1048;SDS011;513;51.444;7.196;2023-09-19T07:17:56;11.23;;;2.78;;
1048;SDS011;513;51.444;7.196;2023-09-19T07:20:23;10.68;;;2.63;;
1048;SDS011;513;51.444;7.196;2023-09-19T07:22:51;10.30;;;2.95;;
1048;SDS011;513;51.444;7.196;2023-09-19T07:25:19;12.50;;;2.90;;
1048;SDS011;513;51.444;7.196;2023-09-19T07:27:46;10.35;;;2.75;;
1048;SDS011;513;51.444;7.196;2023-09-19T07:30:14;12.75;;;2.78;;
1048;SDS011;513;51.444;7.196;2023-09-19T07:32:42;8.47;;;2.53;;
1048;SDS011;513;51.444;7.196;2023-09-19T07:35:09;13.60;;;2.97;;
1048;SDS011;513;51.444;7.196;2023-09-19T07:37:37;10.60;;;2.58;;
1048;SDS011;513;51.444;7.196;2023-09-19T07:40:04;11.07;;;2.60;;
1048;SDS011;513;51.444;7.196;2023-09-19T07:42:32;10.88;;;2.90;;
1048;SDS011;513;51.444;7.196;2023-09-19T07:45:02;12.07;;;2.63;;
1048;SDS011;513;51.444;7.196;2023-09-19T07:47:29;9.52;;;2.53;;
1048;SDS011;513;51.444;7.196;2023-09-19T07:49:58;11.57;;;2.55;;
1048;SDS011;513;51.444;7.196;2023-09-19T07:52:26;10.85;;;2.45;;
1048;SDS011;513;51.444;7.196;2023-09-19T07:54:54;13.93;;;2.50;;
1048;SDS011;513;51.444;7.196;2023-09-19T07:57:22;14.63;;;3.13;;
1048;SDS011;513;51.444;7.196;2023-09-19T07:59:49;11.27;;;2.85;;
1048;SDS011;513;51.444;7.196;2023-09-19T08:02:16;12.00;;;3.40;;
1048;SDS011;513;51.444;7.196;2023-09-19T08:04:44;14.07;;;2.50;;
1048;SDS011;513;51.444;7.196;2023-09-19T08:07:13;12.75;;;2.67;;
1048;SDS011;513;51.444;7.196;2023-09-19T08:09:40;15.32;;;2.80;;
1048;SDS011;513;51.444;7.196;2023-09-19T08:12:11;10.85;;;2.85;;
1048;SDS011;513;51.444;7.196;2023-09-19T08:14:39;11.63;;;2.38;;
1048;SDS011;513;51.444;7.196;2023-09-19T08:17:07;10.50;;;2.80;;
1048;SDS011;513;51.444;7.196;2023-09-19T08:19:34;9.93;;;2.65;;
1048;SDS011;513;51.444;7.196;2023-09-19T08:22:01;11.77;;;2.60;;
1048;SDS011;513;51.444;7.196;2023-09-19T08:24:30;13.70;;;3.00;;
1048;SDS011;513;51.444;7.196;2023-09-19T08:26:58;12.93;;;3.10;;
1048;SDS011;513;51.444;7.196;2023-09-19T08:29:25;10.48;;;2.55;;
1048;SDS011;513;51.444;7.196;2023-09-19T08:31:54;14.88;;;2.60;;
1048;SDS011;513;51.444;7.196;2023-09-19T08:34:21;12.20;;;3.42;;
1048;SDS011;513;51.444;7.196;2023-09-19T08:36:49;11.60;;;3.10;;
1048;SDS011;513;51.444;7.196;2023-09-19T08:39:17;12.63;;;3.17;;
1048;SDS011;513;51.444;7.196;2023-09-19T08:41:46;11.63;;;2.73;;
1048;SDS011;513;51.444;7.196;2023-09-19T08:44:13;12.00;;;2.83;;
1048;SDS011;513;51.444;7.196;2023-09-19T08:46:40;13.48;;;3.10;;
1048;SDS011;513;51.444;7.196;2023-09-19T08:49:08;13.43;;;3.28;;
1048;SDS011;513;51.444;7.196;2023-09-19T08:51:41;9.65;;;2.63;;
1048;SDS011;513;51.444;7.196;2023-09-19T08:54:12;11.27;;;2.88;;
1048;SDS011;513;51.444;7.196;2023-09-19T08:56:43;10.85;;;2.47;;
1048;SDS011;513;51.444;7.196;2023-09-19T08:59:13;12.77;;;2.75;;
1048;SDS011;513;51.444;7.196;2023-09-19T09:01:41;11.57;;;2.65;;
1048;SDS011;513;51.444;7.196;2023-09-19T09:04:09;12.43;;;2.50;;
1048;SDS011;513;51.444;7.196;2023-09-19T09:06:38;10.13;;;2.50;;
1048;SDS011;513;51.444;7.196;2023-09-19T09:09:05;11.02;;;2.78;;
1048;SDS011;513;51.444;7.196;2023-09-19T09:11:34;10.68;;;2.60;;
1048;SDS011;513;51.444;7.196;2023-09-19T09:14:02;11.73;;;2.42;;
1048;SDS011;513;51.444;7.196;2023-09-19T09:16:30;11.73;;;2.40;;
1048;SDS011;513;51.444;7.196;2023-09-19T09:18:57;9.38;;;2.53;;
1048;SDS011;513;51.444;7.196;2023-09-19T09:21:25;11.85;;;2.30;;
1048;SDS011;513;51.444;7.196;2023-09-19T09:23:52;12.63;;;2.63;;
1048;SDS011;513;51.444;7.196;2023-09-19T09:26:23;12.13;;;2.63;;
1048;SDS011;513;51.444;7.196;2023-09-19T09:29:07;10.98;;;2.53;;
1048;SDS011;513;51.444;7.196;2023-09-19T09:31:36;12.13;;;2.40;;
1048;SDS011;513;51.444;7.196;2023-09-19T09:34:03;17.90;;;5.88;;
1048;SDS011;513;51.444;7.196;2023-09-19T09:36:33;11.25;;;2.88;;
1048;SDS011;513;51.444;7.196;2023-09-19T09:39:02;10.00;;;2.65;;
1048;SDS011;513;51.444;7.196;2023-09-19T09:41:41;10.63;;;2.40;;
1048;SDS011;513;51.444;7.196;2023-09-19T09:44:11;8.02;;;2.40;;
1048;SDS011;513;51.444;7.196;2023-09-19T09:46:43;9.10;;;2.50;;
1048;SDS011;513;51.444;7.196;2023-09-19T09:49:41;10.43;;;2.35;;
1048;SDS011;513;51.444;7.196;2023-09-19T09:52:19;6.78;;;2.25;;
1048;SDS011;513;51.444;7.196;2023-09-19T09:54:58;9.57;;;2.50;;
1048;SDS011;513;51.444;7.196;2023-09-19T09:57:25;7.43;;;2.30;;
1048;SDS011;513;51.444;7.196;2023-09-19T09:59:53;7.32;;;2.15;;
1048;SDS011;513;51.444;7.196;2023-09-19T10:02:26;10.50;;;2.55;;
1048;SDS011;513;51.444;7.196;2023-09-19T10:04:58;11.43;;;2.75;;
1048;SDS011;513;51.444;7.196;2023-09-19T10:07:34;8.02;;;2.47;;
1048;SDS011;513;51.444;7.196;2023-09-19T10:10:04;8.45;;;2.40;;
1048;SDS011;513;51.444;7.196;2023-09-19T10:12:42;10.88;;;2.38;;
1048;SDS011;513;51.444;7.196;2023-09-19T10:15:10;19.85;;;2.90;;
1048;SDS011;513;51.444;7.196;2023-09-19T10:17:43;10.10;;;2.28;;
1048;SDS011;513;51.444;7.196;2023-09-19T10:20:15;9.50;;;2.65;;
1048;SDS011;513;51.444;7.196;2023-09-19T10:22:59;8.55;;;2.42;;
1048;SDS011;513;51.444;7.196;2023-09-19T10:25:26;9.15;;;2.70;;
1048;SDS011;513;51.444;7.196;2023-09-19T10:27:55;13.15;;;4.55;;
1048;SDS011;513;51.444;7.196;2023-09-19T10:30:24;8.52;;;2.85;;
1048;SDS011;513;51.444;7.196;2023-09-19T10:32:56;11.75;;;3.30;;
1048;SDS011;513;51.444;7.196;2023-09-19T10:35:24;12.07;;;2.90;;
1048;SDS011;513;51.444;7.196;2023-09-19T10:37:52;8.32;;;2.60;;
1048;SDS011;513;51.444;7.196;2023-09-19T10:40:21;17.98;;;7.05;;
1048;SDS011;513;51.444;7.196;2023-09-19T10:42:51;13.02;;;4.03;;
1048;SDS011;513;51.444;7.196;2023-09-19T10:45:20;7.13;;;2.08;;
1048;SDS011;513;51.444;7.196;2023-09-19T10:47:50;9.38;;;2.38;;
1048;SDS011;513;51.444;7.196;2023-09-19T10:50:20;8.83;;;2.13;;
1048;SDS011;513;51.444;7.196;2023-09-19T10:52:48;8.15;;;2.30;;
1048;SDS011;513;51.444;7.196;2023-09-19T10:55:23;8.38;;;2.40;;
1048;SDS011;513;51.444;7.196;2023-09-19T10:57:53;8.15;;;2.40;;
1048;SDS011;513;51.444;7.196;2023-09-19T11:00:50;8.50;;;2.47;;
1048;SDS011;513;51.444;7.196;2023-09-19T11:03:19;7.75;;;2.05;;
1048;SDS011;513;51.444;7.196;2023-09-19T11:11:41;6.18;;;2.10;;
1048;SDS011;513;51.444;7.196;2023-09-19T11:14:14;8.98;;;2.28;;
1048;SDS011;513;51.444;7.196;2023-09-19T11:16:56;9.18;;;2.50;;
1048;SDS011;513;51.444;7.196;2023-09-19T11:25:42;6.40;;;2.10;;
1048;SDS011;513;51.444;7.196;2023-09-19T11:28:28;7.15;;;2.30;;
1048;SDS011;513;51.444;7.196;2023-09-19T11:30:56;6.88;;;2.17;;
1048;SDS011;513;51.444;7.196;2023-09-19T11:33:25;8.75;;;2.30;;
1048;SDS011;513;51.444;7.196;2023-09-19T11:36:03;9.63;;;2.00;;
1048;SDS011;513;51.444;7.196;2023-09-19T11:47:00;5.40;;;2.10;;
1048;SDS011;513;51.444;7.196;2023-09-19T11:49:29;8.05;;;2.30;;
1048;SDS011;513;51.444;7.196;2023-09-19T11:51:57;8.30;;;2.13;;
1048;SDS011;513;51.444;7.196;2023-09-19T11:54:26;7.72;;;2.47;;
1048;SDS011;513;51.444;7.196;2023-09-19T11:56:56;6.72;;;2.13;;
1048;SDS011;513;51.444;7.196;2023-09-19T11:59:24;10.35;;;2.25;;
1048;SDS011;513;51.444;7.196;2023-09-19T12:01:53;9.73;;;2.47;;
1048;SDS011;513;51.444;7.196;2023-09-19T12:04:32;7.97;;;2.13;;
1048;SDS011;513;51.444;7.196;2023-09-19T12:07:02;7.30;;;2.13;;
1048;SDS011;513;51.444;7.196;2023-09-19T12:09:30;8.23;;;2.28;;
1048;SDS011;513;51.444;7.196;2023-09-19T12:11:57;10.13;;;2.67;;
1048;SDS011;513;51.444;7.196;2023-09-19T12:14:25;7.25;;;2.13;;
1048;SDS011;513;51.444;7.196;2023-09-19T12:16:53;7.53;;;2.22;;
1048;SDS011;513;51.444;7.196;2023-09-19T12:19:21;10.30;;;2.40;;
1048;SDS011;513;51.444;7.196;2023-09-19T12:21:59;7.65;;;2.40;;
1048;SDS011;513;51.444;7.196;2023-09-19T12:24:30;7.82;;;2.40;;
1048;SDS011;513;51.444;7.196;2023-09-19T12:27:01;6.78;;;1.92;;
1048;SDS011;513;51.444;7.196;2023-09-19T12:29:29;7.97;;;2.10;;
1048;SDS011;513;51.444;7.196;2023-09-19T12:31:57;9.07;;;2.38;;
1048;SDS011;513;51.444;7.196;2023-09-19T12:34:29;7.22;;;2.20;;
1048;SDS011;513;51.444;7.196;2023-09-19T12:37:07;8.75;;;2.25;;
1048;SDS011;513;51.444;7.196;2023-09-19T12:39:41;7.32;;;2.15;;
1048;SDS011;513;51.444;7.196;2023-09-19T12:42:09;5.57;;;1.90;;
1048;SDS011;513;51.444;7.196;2023-09-19T12:44:39;8.97;;;2.13;;
1048;SDS011;513;51.444;7.196;2023-09-19T12:47:09;7.70;;;2.20;;
1048;SDS011;513;51.444;7.196;2023-09-19T12:49:36;5.97;;;1.98;;
1048;SDS011;513;51.444;7.196;2023-09-19T12:52:25;5.75;;;1.77;;
1048;SDS011;513;51.444;7.196;2023-09-19T12:54:52;5.50;;;1.80;;
1048;SDS011;513;51.444;7.196;2023-09-19T12:57:23;6.60;;;2.28;;
1048;SDS011;513;51.444;7.196;2023-09-19T12:59:51;5.75;;;2.08;;
1048;SDS011;513;51.444;7.196;2023-09-19T13:02:18;8.25;;;1.98;;
1048;SDS011;513;51.444;7.196;2023-09-19T13:04:51;7.43;;;2.10;;
1048;SDS011;513;51.444;7.196;2023-09-19T13:10:05;6.50;;;2.00;;
1048;SDS011;513;51.444;7.196;2023-09-19T13:12:34;5.87;;;1.90;;
1048;SDS011;513;51.444;7.196;2023-09-19T13:15:08;5.43;;;1.60;;
1048;SDS011;513;51.444;7.196;2023-09-19T13:17:45;5.60;;;1.50;;
1048;SDS011;513;51.444;7.196;2023-09-19T13:20:22;5.45;;;1.98;;
1048;SDS011;513;51.444;7.196;2023-09-19T13:22:52;7.03;;;1.98;;
1048;SDS011;513;51.444;7.196;2023-09-19T13:25:25;4.43;;;1.67;;
1048;SDS011;513;51.444;7.196;2023-09-19T13:27:54;7.03;;;1.70;;
1048;SDS011;513;51.444;7.196;2023-09-19T13:30:22;6.97;;;1.83;;
1048;SDS011;513;51.444;7.196;2023-09-19T13:32:50;5.88;;;1.90;;
1048;SDS011;513;51.444;7.196;2023-09-19T13:35:18;5.95;;;1.50;;
1048;SDS011;513;51.444;7.196;2023-09-19T13:37:46;7.32;;;1.70;;
1048;SDS011;513;51.444;7.196;2023-09-19T13:40:14;9.18;;;1.80;;
1048;SDS011;513;51.444;7.196;2023-09-19T13:42:43;4.68;;;1.67;;
1048;SDS011;513;51.444;7.196;2023-09-19T13:45:10;5.13;;;1.43;;
1048;SDS011;513;51.444;7.196;2023-09-19T13:47:40;4.90;;;1.55;;
1048;SDS011;513;51.444;7.196;2023-09-19T13:50:08;7.90;;;1.58;;
1048;SDS011;513;51.444;7.196;2023-09-19T13:52:35;6.30;;;1.40;;
1048;SDS011;513;51.444;7.196;2023-09-19T13:55:03;5.45;;;1.45;;
1048;SDS011;513;51.444;7.196;2023-09-19T13:57:31;6.80;;;1.80;;
1048;SDS011;513;51.444;7.196;2023-09-19T14:00:00;5.38;;;1.45;;
1048;SDS011;513;51.444;7.196;2023-09-19T14:02:29;6.20;;;1.33;;
1048;SDS011;513;51.444;7.196;2023-09-19T14:04:57;3.53;;;1.30;;
1048;SDS011;513;51.444;7.196;2023-09-19T14:07:24;3.50;;;1.15;;
1048;SDS011;513;51.444;7.196;2023-09-19T14:09:51;3.83;;;1.40;;
1048;SDS011;513;51.444;7.196;2023-09-19T14:12:18;4.70;;;1.30;;
1048;SDS011;513;51.444;7.196;2023-09-19T14:14:46;6.65;;;1.50;;
1048;SDS011;513;51.444;7.196;2023-09-19T14:17:17;4.80;;;1.30;;
1048;SDS011;513;51.444;7.196;2023-09-19T14:19:44;6.65;;;1.25;;
1048;SDS011;513;51.444;7.196;2023-09-19T14:22:11;5.55;;;1.10;;
1048;SDS011;513;51.444;7.196;2023-09-19T14:24:39;5.13;;;1.23;;
1048;SDS011;513;51.444;7.196;2023-09-19T14:27:07;6.18;;;1.13;;
1048;SDS011;513;51.444;7.196;2023-09-19T14:29:36;5.28;;;1.20;;
1048;SDS011;513;51.444;7.196;2023-09-19T14:32:03;3.65;;;1.67;;
1048;SDS011;513;51.444;7.196;2023-09-19T14:34:32;7.00;;;1.30;;
1048;SDS011;513;51.444;7.196;2023-09-19T14:36:59;5.53;;;1.20;;
1048;SDS011;513;51.444;7.196;2023-09-19T14:39:26;3.03;;;1.20;;
1048;SDS011;513;51.444;7.196;2023-09-19T14:41:53;6.13;;;1.20;;
1048;SDS011;513;51.444;7.196;2023-09-19T14:44:20;3.90;;;1.10;;
1048;SDS011;513;51.444;7.196;2023-09-19T14:46:47;3.78;;;1.20;;
1048;SDS011;513;51.444;7.196;2023-09-19T14:49:14;2.03;;;1.10;;
1048;SDS011;513;51.444;7.196;2023-09-19T14:51:43;4.10;;;1.30;;
1048;SDS011;513;51.444;7.196;2023-09-19T14:54:12;3.30;;;1.30;;
1048;SDS011;513;51.444;7.196;2023-09-19T14:56:41;4.40;;;1.30;;
1048;SDS011;513;51.444;7.196;2023-09-19T14:59:09;8.65;;;3.85;;
1048;SDS011;513;51.444;7.196;2023-09-19T15:01:37;5.63;;;2.70;;
1048;SDS011;513;51.444;7.196;2023-09-19T15:04:06;5.13;;;1.27;;
1048;SDS011;513;51.444;7.196;2023-09-19T15:06:33;7.10;;;1.25;;
1048;SDS011;513;51.444;7.196;2023-09-19T15:09:04;2.92;;;1.38;;
1048;SDS011;513;51.444;7.196;2023-09-19T15:11:33;4.65;;;1.20;;
1048;SDS011;513;51.444;7.196;2023-09-19T15:14:00;3.35;;;1.10;;
1048;SDS011;513;51.444;7.196;2023-09-19T15:16:28;3.60;;;1.20;;
1048;SDS011;513;51.444;7.196;2023-09-19T15:18:55;7.38;;;1.45;;
1048;SDS011;513;51.444;7.196;2023-09-19T15:21:23;6.30;;;1.27;;
1048;SDS011;513;51.444;7.196;2023-09-19T15:23:50;4.07;;;1.20;;
1048;SDS011;513;51.444;7.196;2023-09-19T15:26:18;4.22;;;1.10;;
1048;SDS011;513;51.444;7.196;2023-09-19T15:28:47;4.93;;;1.10;;
1048;SDS011;513;51.444;7.196;2023-09-19T15:31:14;2.10;;;1.00;;
1048;SDS011;513;51.444;7.196;2023-09-19T15:33:41;4.32;;;1.00;;
1048;SDS011;513;51.444;7.196;2023-09-19T15:36:08;3.53;;;1.00;;
1048;SDS011;513;51.444;7.196;2023-09-19T15:41:23;3.40;;;1.20;;
1048;SDS011;513;51.444;7.196;2023-09-19T15:43:50;4.78;;;1.30;;
1048;SDS011;513;51.444;7.196;2023-09-19T15:46:18;4.22;;;1.13;;
1048;SDS011;513;51.444;7.196;2023-09-19T15:48:45;3.53;;;1.00;;
1048;SDS011;513;51.444;7.196;2023-09-19T15:51:12;5.03;;;1.33;;
1048;SDS011;513;51.444;7.196;2023-09-19T15:53:41;4.53;;;1.00;;
1048;SDS011;513;51.444;7.196;2023-09-19T15:56:09;3.25;;;0.88;;
1048;SDS011;513;51.444;7.196;2023-09-19T15:58:37;3.35;;;1.20;;
1048;SDS011;513;51.444;7.196;2023-09-19T16:01:04;2.15;;;0.88;;